Time;durP1;ratioP1;P1;durP2;ratioP2;P2;SDS_P1;SDS_P2;PMS_P1;PMS_P2;Temp;Humidity;BMP_temperature;BMP_pressure;BME280_temperature;BME280_humidity;BME280_pressure;Samples;Min_cycle;Max_cycle;Signal;HPM_P1;HPM_P2
2022/07/06 04:03:35;;;;;;;2.67;2.47;;;15.70;99.90;;;;;;6199894;22;20449;-69
2022/07/06 04:06:00;;;;;;;2.50;2.40;;;15.70;99.90;;;;;;5013260;28;20539;-66
2022/07/06 04:08:26;;;;;;;3.23;3.03;;;15.80;99.90;;;;;;5015705;28;20244;-66
2022/07/06 04:10:51;;;;;;;2.47;2.37;;;15.80;99.90;;;;;;5015688;28;20178;-65
2022/07/06 04:13:17;;;;;;;2.40;2.20;;;15.80;99.90;;;;;;5013977;28;20202;-66
2022/07/06 04:15:43;;;;;;;2.90;2.67;;;15.90;99.90;;;;;;5015546;28;20181;-67
2022/07/06 04:18:08;;;;;;;6.10;3.23;;;15.90;99.90;;;;;;5015494;28;20212;-66
2022/07/06 04:20:34;;;;;;;4.00;3.27;;;16.00;99.90;;;;;;5007131;28;20581;-66
2022/07/06 04:23:00;;;;;;;3.17;2.90;;;16.20;99.90;;;;;;5014825;28;20214;-66
2022/07/06 04:25:26;;;;;;;5.10;3.40;;;16.40;99.90;;;;;;5015471;28;20187;-66
2022/07/06 04:27:52;;;;;;;2.80;2.60;;;16.70;99.90;;;;;;5015214;28;20495;-66
2022/07/06 04:30:17;;;;;;;2.87;2.67;;;16.80;99.90;;;;;;5015389;28;20237;-66
2022/07/06 04:32:43;;;;;;;3.20;3.00;;;17.00;99.90;;;;;;5014339;28;20215;-66
2022/07/06 04:35:09;;;;;;;2.70;2.50;;;17.20;99.90;;;;;;5014344;28;20196;-66
2022/07/06 04:37:34;;;;;;;2.80;2.60;;;17.30;99.90;;;;;;5015357;28;20539;-66
2022/07/06 04:40:00;;;;;;;3.30;3.00;;;17.40;99.90;;;;;;5015228;28;20186;-67
2022/07/06 04:42:25;;;;;;;3.07;2.87;;;17.40;99.90;;;;;;5012850;28;20204;-66
2022/07/06 04:44:51;;;;;;;3.00;2.80;;;17.50;99.90;;;;;;4995100;28;20271;-65
2022/07/06 04:47:17;;;;;;;3.20;3.00;;;17.70;99.90;;;;;;5003703;28;20177;-68
2022/07/06 04:49:43;;;;;;;3.77;3.20;;;17.80;99.90;;;;;;4995870;28;20523;-67
2022/07/06 04:52:09;;;;;;;3.90;3.23;;;18.00;99.90;;;;;;4995107;28;20423;-67
2022/07/06 04:54:34;;;;;;;3.00;2.80;;;18.00;99.90;;;;;;4994844;28;20662;-68
2022/07/06 04:57:00;;;;;;;3.40;3.20;;;18.20;99.90;;;;;;4995340;28;20173;-68
2022/07/06 04:59:25;;;;;;;3.20;2.90;;;18.20;99.90;;;;;;4996734;28;20202;-69
2022/07/06 05:01:51;;;;;;;3.73;2.80;;;18.20;99.90;;;;;;4994665;28;20569;-68
2022/07/06 05:04:19;;;;;;;3.67;3.33;;;18.30;99.90;;;;;;4994415;28;20230;-68
2022/07/06 05:06:45;;;;;;;3.50;3.30;;;18.30;99.90;;;;;;4998907;28;20523;-68
2022/07/06 05:09:12;;;;;;;4.20;3.53;;;18.30;99.90;;;;;;5001862;28;20395;-70
2022/07/06 05:11:38;;;;;;;3.43;3.20;;;18.30;99.90;;;;;;5003586;28;20457;-69
2022/07/06 05:14:04;;;;;;;3.40;3.20;;;18.40;99.90;;;;;;5003887;28;20829;-68
2022/07/06 05:16:29;;;;;;;3.90;3.60;;;18.50;99.90;;;;;;5006217;28;20214;-68
2022/07/06 05:18:55;;;;;;;3.10;2.90;;;18.60;99.90;;;;;;4994714;28;20423;-67
2022/07/06 05:21:20;;;;;;;3.03;2.83;;;18.70;99.90;;;;;;4994939;28;20203;-67
2022/07/06 05:23:46;;;;;;;3.43;3.20;;;18.90;99.90;;;;;;4994437;28;20242;-70
2022/07/06 05:26:12;;;;;;;3.33;3.13;;;19.20;99.90;;;;;;5012811;28;20177;-67
2022/07/06 05:28:37;;;;;;;3.73;3.43;;;19.30;99.90;;;;;;5014150;28;20171;-68
2022/07/06 05:31:03;;;;;;;3.60;3.33;;;19.40;99.90;;;;;;4998446;28;20215;-68
2022/07/06 05:33:28;;;;;;;3.97;3.43;;;19.40;99.90;;;;;;4995197;28;20667;-68
2022/07/06 05:35:54;;;;;;;3.23;3.03;;;19.40;99.40;;;;;;4995892;28;20186;-66
2022/07/06 05:38:20;;;;;;;3.23;3.03;;;19.30;99.10;;;;;;5013104;28;20187;-67
2022/07/06 05:40:46;;;;;;;3.83;3.47;;;19.20;99.00;;;;;;5006995;28;20176;-68
2022/07/06 05:43:13;;;;;;;4.90;4.47;;;19.10;99.30;;;;;;4993975;28;20443;-71
2022/07/06 05:45:38;;;;;;;4.03;3.70;;;19.00;99.70;;;;;;5000451;28;20393;-71
2022/07/06 05:50:48;;;;;;;7.33;5.43;;;19.00;99.90;;;;;;5013556;28;20178;-69
2022/07/06 05:53:14;;;;;;;4.30;3.73;;;19.00;99.90;;;;;;5013376;28;20410;-69
2022/07/06 05:55:39;;;;;;;4.97;4.57;;;19.00;99.90;;;;;;5013779;28;20704;-71
2022/07/06 05:58:05;;;;;;;5.60;3.70;;;19.00;99.90;;;;;;5011157;28;20638;-71
2022/07/06 06:00:31;;;;;;;3.70;3.40;;;19.00;99.70;;;;;;5002594;28;20642;-71
2022/07/06 06:02:58;;;;;;;3.47;3.27;;;18.90;99.70;;;;;;4993629;28;20171;-71
2022/07/06 06:05:24;;;;;;;3.63;3.33;;;18.90;99.90;;;;;;4992446;28;20436;-71
2022/07/06 06:07:51;;;;;;;3.53;3.30;;;19.00;99.90;;;;;;4993694;28;20397;-71
2022/07/06 06:10:17;;;;;;;4.97;3.50;;;19.10;99.90;;;;;;4993935;28;20167;-71
2022/07/06 06:12:44;;;;;;;3.03;2.83;;;19.30;99.90;;;;;;4994564;28;20521;-71
2022/07/06 06:15:11;;;;;;;3.83;3.53;;;19.50;99.90;;;;;;4993879;28;20478;-72
2022/07/06 06:17:37;;;;;;;3.53;3.00;;;19.70;98.80;;;;;;4992631;28;20397;-71
2022/07/06 06:20:06;;;;;;;3.20;2.90;;;19.80;97.20;;;;;;4992726;28;20428;-73
2022/07/06 06:22:44;;;;;;;3.00;2.80;;;19.80;96.70;;;;;;4993383;28;20443;-71
2022/07/06 06:25:10;;;;;;;2.83;2.63;;;19.90;96.80;;;;;;5002531;28;20428;-72
2022/07/06 06:27:35;;;;;;;3.60;3.40;;;19.90;96.60;;;;;;5013350;28;20421;-72
2022/07/06 06:30:01;;;;;;;2.93;2.57;;;19.90;96.20;;;;;;5002548;28;20187;-73
2022/07/06 06:32:27;;;;;;;3.10;2.80;;;20.00;96.50;;;;;;5011355;28;20206;-72
2022/07/06 06:34:52;;;;;;;3.00;2.80;;;20.10;95.60;;;;;;5012329;28;20257;-70
2022/07/06 06:37:18;;;;;;;3.10;2.90;;;20.20;95.50;;;;;;5013081;28;20179;-68
2022/07/06 06:39:43;;;;;;;3.03;2.80;;;20.20;95.20;;;;;;5010955;28;20183;-72
2022/07/06 06:42:09;;;;;;;3.03;2.63;;;20.30;95.40;;;;;;5011310;28;20206;-76
2022/07/06 06:44:35;;;;;;;2.60;2.50;;;20.50;96.00;;;;;;5012530;28;20197;-72
2022/07/06 06:47:00;;;;;;;2.33;2.23;;;20.70;95.80;;;;;;5006058;28;20184;-67
2022/07/06 06:49:26;;;;;;;2.63;2.53;;;20.80;95.20;;;;;;5005278;28;20586;-70
2022/07/06 06:51:51;;;;;;;2.50;2.40;;;21.00;95.10;;;;;;5012136;28;20171;-71
2022/07/06 06:54:17;;;;;;;3.17;2.83;;;;;;;;;;4995331;28;20622;-71
2022/07/06 06:56:43;;;;;;;3.00;2.80;;;;;;;;;;4996655;28;20198;-70
2022/07/06 06:59:09;;;;;;;3.30;3.10;;;;;;;;;;5008266;28;20399;-71
2022/07/06 07:01:35;;;;;;;2.63;2.43;;;21.20;95.20;;;;;;5013697;28;20460;-70
2022/07/06 07:04:01;;;;;;;3.20;3.00;;;21.80;92.50;;;;;;5011559;28;20448;-71
2022/07/06 07:06:26;;;;;;;3.00;2.80;;;21.70;92.80;;;;;;5016353;28;20662;-71
2022/07/06 07:08:52;;;;;;;2.60;2.40;;;21.70;92.70;;;;;;5016788;28;20244;-70
2022/07/06 07:11:17;;;;;;;2.90;2.70;;;21.60;93.50;;;;;;5016722;28;20742;-70
2022/07/06 07:13:43;;;;;;;3.10;2.90;;;21.70;93.40;;;;;;5014583;28;20195;-70
2022/07/06 07:16:09;;;;;;;2.90;2.77;;;21.70;93.00;;;;;;5007634;28;20641;-70
2022/07/06 07:18:34;;;;;;;2.90;2.70;;;21.80;92.60;;;;;;5015994;28;20178;-70
2022/07/06 07:21:00;;;;;;;3.00;2.80;;;21.80;92.70;;;;;;5016615;28;20202;-71
2022/07/06 07:23:26;;;;;;;2.47;2.37;;;21.80;92.00;;;;;;5016247;28;20192;-70
2022/07/06 07:25:52;;;;;;;3.00;2.80;;;21.70;92.20;;;;;;5005350;28;20205;-70
2022/07/06 07:28:17;;;;;;;2.93;2.70;;;21.90;92.30;;;;;;5010201;28;20431;-70
2022/07/06 07:30:43;;;;;;;2.97;2.77;;;;;;;;;;4997017;28;20168;-69
2022/07/06 07:33:09;;;;;;;2.80;2.63;;;;;;;;;;4996480;28;20169;-72
2022/07/06 07:35:35;;;;;;;3.60;3.40;;;22.00;91.30;;;;;;5014620;28;20421;-68
2022/07/06 07:38:01;;;;;;;2.37;2.27;;;;;;;;;;5015839;28;20400;-70
2022/07/06 07:40:27;;;;;;;2.93;2.73;;;22.50;90.80;;;;;;5014857;28;20254;-69
2022/07/06 07:42:52;;;;;;;2.40;2.27;;;24.00;88.60;;;;;;5014685;28;20829;-69
2022/07/06 07:45:18;;;;;;;2.90;2.60;;;24.80;86.10;;;;;;5015458;28;20209;-69
2022/07/06 07:47:44;;;;;;;4.00;3.70;;;25.80;83.40;;;;;;5014818;28;20254;-74
2022/07/06 07:50:11;;;;;;;3.07;2.87;;;26.90;81.80;;;;;;4996192;28;20204;-69
2022/07/06 07:52:36;;;;;;;4.00;3.70;;;27.70;76.70;;;;;;4995992;28;20427;-73
2022/07/06 07:55:02;;;;;;;3.13;2.93;;;28.50;74.30;;;;;;4998022;28;20435;-71
2022/07/06 07:57:28;;;;;;;4.93;3.03;;;29.20;71.40;;;;;;4994404;28;20168;-69
2022/07/06 07:59:54;;;;;;;2.90;2.80;;;29.80;70.50;;;;;;4994734;28;20443;-70
2022/07/06 08:02:19;;;;;;;3.50;3.20;;;30.60;68.80;;;;;;5010048;28;20203;-71
2022/07/06 08:04:45;;;;;;;3.00;2.80;;;31.50;66.40;;;;;;5015503;28;20547;-70
2022/07/06 08:07:10;;;;;;;2.67;2.57;;;32.10;64.40;;;;;;5013150;28;20202;-69
2022/07/06 08:09:36;;;;;;;3.10;2.90;;;32.80;62.90;;;;;;5015256;28;20174;-68
2022/07/06 08:12:02;;;;;;;4.20;3.70;;;33.10;60.40;;;;;;5001868;28;20254;-67
2022/07/06 08:14:28;;;;;;;2.70;2.60;;;33.60;58.00;;;;;;5006689;28;20281;-67
2022/07/06 08:16:53;;;;;;;3.10;2.90;;;34.10;58.30;;;;;;5015850;28;20441;-67
2022/07/06 08:19:19;;;;;;;3.20;3.00;;;34.40;56.50;;;;;;5015246;28;20198;-65
2022/07/06 08:21:44;;;;;;;2.97;2.87;;;34.60;56.70;;;;;;5015141;28;20194;-66
2022/07/06 08:24:11;;;;;;;2.83;2.73;;;35.00;55.60;;;;;;5009869;28;20204;-67
2022/07/06 08:26:36;;;;;;;3.50;3.30;;;35.60;55.30;;;;;;4999840;28;20210;-66
2022/07/06 08:29:03;;;;;;;3.23;3.03;;;36.00;53.80;;;;;;5000128;28;20446;-65
2022/07/06 08:31:28;;;;;;;3.23;3.00;;;36.00;53.30;;;;;;5009326;28;20178;-66
2022/07/06 08:33:55;;;;;;;3.50;3.30;;;36.10;51.80;;;;;;5006120;28;20448;-64
2022/07/06 08:36:21;;;;;;;3.27;3.17;;;36.00;53.30;;;;;;5014826;28;20185;-66
2022/07/06 08:38:47;;;;;;;3.00;2.87;;;35.50;53.70;;;;;;5015148;28;20464;-66
2022/07/06 08:41:15;;;;;;;6.73;3.57;;;35.20;54.30;;;;;;5013659;28;20492;-67
2022/07/06 08:43:41;;;;;;;3.47;3.27;;;34.80;53.50;;;;;;5002405;28;20446;-66
2022/07/06 08:46:07;;;;;;;4.40;4.10;;;34.60;54.40;;;;;;5015195;28;20808;-65
2022/07/06 08:48:36;;;;;;;3.13;2.93;;;34.90;54.80;;;;;;5014201;28;20171;-64
2022/07/06 08:51:03;;;;;;;3.30;3.10;;;35.40;53.80;;;;;;5014313;28;20532;-68
2022/07/06 08:53:29;;;;;;;3.27;3.07;;;35.80;53.90;;;;;;5013888;28;20916;-67
2022/07/06 08:55:55;;;;;;;3.40;3.20;;;36.00;52.80;;;;;;5013652;28;20541;-72
2022/07/06 08:58:24;;;;;;;2.87;2.77;;;35.70;51.00;;;;;;5014222;28;20198;-67
2022/07/06 09:00:50;;;;;;;3.77;3.47;;;35.10;52.40;;;;;;5014712;28;20167;-65
2022/07/06 09:03:16;;;;;;;3.30;3.17;;;34.80;53.20;;;;;;5012149;28;20921;-66
2022/07/06 09:05:46;;;;;;;3.23;3.03;;;34.50;53.40;;;;;;4998538;28;20187;-68
2022/07/06 09:08:13;;;;;;;3.70;3.50;;;34.40;53.60;;;;;;4995253;28;20419;-68
2022/07/06 09:10:39;;;;;;;4.17;3.77;;;34.80;53.00;;;;;;4995158;28;20423;-68
2022/07/06 09:13:07;;;;;;;3.10;3.00;;;35.00;52.30;;;;;;4994509;28;20737;-68
2022/07/06 09:15:34;;;;;;;3.67;3.37;;;35.30;53.00;;;;;;4996737;28;20519;-66
2022/07/06 09:18:00;;;;;;;3.80;3.60;;;35.50;52.40;;;;;;5007203;28;20422;-67
2022/07/06 09:20:26;;;;;;;3.73;3.43;;;36.10;51.10;;;;;;5014308;28;20432;-67
2022/07/06 09:22:59;;;;;;;3.70;3.50;;;36.00;50.70;;;;;;5002411;28;20556;-68
2022/07/06 09:25:27;;;;;;;3.37;3.17;;;36.00;50.80;;;;;;4998130;28;20438;-67
2022/07/06 09:27:55;;;;;;;3.17;3.07;;;36.00;51.20;;;;;;5011608;28;20424;-67
2022/07/06 09:30:22;;;;;;;3.20;3.00;;;36.00;51.00;;;;;;4994380;28;20403;-69
2022/07/06 09:32:51;;;;;;;3.40;3.30;;;36.20;51.50;;;;;;5012186;28;20806;-67
2022/07/06 09:35:30;;;;;;;3.63;3.43;;;36.00;51.30;;;;;;5012563;28;20426;-67
2022/07/06 09:38:15;;;;;;;3.60;3.30;;;35.90;50.50;;;;;;5002080;28;20438;-67
2022/07/06 09:40:45;;;;;;;2.90;2.80;;;36.00;51.20;;;;;;5008749;28;20479;-65
2022/07/06 09:43:18;;;;;;;3.23;3.03;;;36.00;51.10;;;;;;5000850;28;20423;-65
2022/07/06 09:45:53;;;;;;;3.63;3.40;;;35.80;51.20;;;;;;4994490;28;20406;-65
2022/07/06 09:48:21;;;;;;;3.87;3.67;;;36.10;51.20;;;;;;4994701;28;20409;-66
2022/07/06 09:50:52;;;;;;;3.00;2.80;;;36.30;50.50;;;;;;4996065;28;20505;-65
2022/07/06 09:53:19;;;;;;;3.57;3.30;;;36.80;50.00;;;;;;5003543;28;20437;-65
2022/07/06 09:55:47;;;;;;;3.33;3.20;;;37.30;49.00;;;;;;4994413;28;20482;-65
2022/07/06 09:58:13;;;;;;;3.17;2.97;;;37.50;48.10;;;;;;5009196;28;20476;-64
2022/07/06 10:00:39;;;;;;;3.87;3.67;;;37.10;48.10;;;;;;4994378;28;20515;-65
2022/07/06 10:03:05;;;;;;;3.07;2.97;;;36.80;49.40;;;;;;4993696;28;20533;-64
2022/07/06 10:05:32;;;;;;;2.97;2.77;;;35.60;49.40;;;;;;5011605;28;20273;-64
2022/07/06 10:07:59;;;;;;;3.23;3.03;;;34.10;51.20;;;;;;5013655;28;20486;-65
2022/07/06 10:10:29;;;;;;;3.57;3.27;;;33.60;53.00;;;;;;5013720;28;20403;-65
2022/07/06 10:12:58;;;;;;;3.00;2.90;;;33.20;53.80;;;;;;5013178;28;20492;-64
2022/07/06 10:15:26;;;;;;;3.40;3.20;;;33.70;53.90;;;;;;5013752;28;20844;-65
2022/07/06 10:17:54;;;;;;;3.70;3.40;;;34.00;52.40;;;;;;5009777;28;20505;-64
2022/07/06 10:20:20;;;;;;;2.83;2.73;;;34.40;51.40;;;;;;5009214;28;20431;-64
2022/07/06 10:22:50;;;;;;;3.30;3.10;;;34.80;52.00;;;;;;4993400;28;20454;-64
2022/07/06 10:25:17;;;;;;;3.33;3.13;;;35.30;51.30;;;;;;5009859;28;20801;-65
2022/07/06 10:27:45;;;;;;;3.57;3.37;;;35.70;51.50;;;;;;4995954;28;20427;-65
2022/07/06 10:30:11;;;;;;;3.83;3.63;;;35.70;51.40;;;;;;5004948;28;20432;-66
2022/07/06 10:32:40;;;;;;;3.90;3.60;;;35.50;50.20;;;;;;5011437;28;20784;-66
2022/07/06 10:35:06;;;;;;;3.43;3.23;;;34.90;50.60;;;;;;5008185;28;20464;-69
2022/07/06 10:37:33;;;;;;;3.40;3.20;;;34.00;51.90;;;;;;5005032;28;20960;-66
2022/07/06 10:42:45;;;;;;;5.57;4.03;;;31.40;54.50;;;;;;5000470;28;20461;-66
2022/07/06 10:45:13;;;;;;;3.63;3.33;;;30.90;55.60;;;;;;5015352;28;20455;-65
2022/07/06 10:47:43;;;;;;;3.10;2.90;;;31.00;56.10;;;;;;5019002;28;20818;-64
2022/07/06 10:50:10;;;;;;;3.30;3.10;;;31.40;55.70;;;;;;5019531;28;20388;-66
2022/07/06 10:52:51;;;;;;;3.20;2.90;;;31.40;55.30;;;;;;5015860;28;20525;-65
2022/07/06 10:57:52;;;;;;;2.90;2.80;;;30.80;56.40;;;;;;5017903;28;20488;-66
2022/07/06 11:00:17;;;;;;;3.60;3.40;;;30.30;56.90;;;;;;5019101;28;20449;-66
2022/07/06 11:02:43;;;;;;;3.00;2.70;;;30.50;57.80;;;;;;5025560;28;20483;-64
2022/07/06 11:05:31;;;;;;;3.43;3.13;;;31.00;57.70;;;;;;5035100;28;20221;-65
2022/07/06 12:33:24;;;;;;;2.83;2.63;;;25.80;71.00;;;;;;5951964;22;20480;-69
2022/07/06 12:35:49;;;;;;;2.90;2.70;;;26.10;68.80;;;;;;5034861;28;20884;-67
2022/07/06 12:38:26;;;;;;;5.20;3.00;;;26.30;67.30;;;;;;5019319;28;20172;-68
2022/07/06 12:40:52;;;;;;;2.90;2.70;;;26.50;69.00;;;;;;5015252;28;20175;-68
2022/07/06 12:43:41;;;;;;;3.43;3.00;;;26.60;67.10;;;;;;5018476;28;20443;-67
2022/07/06 12:46:27;;;;;;;3.90;3.67;;;26.70;69.00;;;;;;5024537;28;20469;-67
2022/07/06 12:48:57;;;;;;;2.77;2.63;;;26.80;67.10;;;;;;5034766;28;20757;-66
2022/07/06 12:51:23;;;;;;;3.10;2.90;;;26.90;66.50;;;;;;5034406;28;20419;-67
2022/07/06 12:53:49;;;;;;;4.77;2.87;;;26.90;67.90;;;;;;5034383;28;20386;-68
2022/07/06 12:56:17;;;;;;;2.50;2.40;;;26.90;65.10;;;;;;5034472;28;20190;-70
2022/07/06 12:58:59;;;;;;;2.57;2.47;;;26.80;64.80;;;;;;5031631;28;20424;-71
2022/07/06 13:01:25;;;;;;;3.60;3.30;;;26.50;66.70;;;;;;5033274;28;20873;-72
2022/07/06 13:03:58;;;;;;;2.83;2.63;;;26.20;67.60;;;;;;5033329;28;20399;-70
2022/07/06 13:06:32;;;;;;;3.50;3.20;;;25.90;68.70;;;;;;5034514;28;20405;-69
2022/07/06 13:08:58;;;;;;;3.67;3.37;;;25.80;67.70;;;;;;5032486;28;20399;-70
2022/07/06 13:11:24;;;;;;;2.90;2.70;;;25.40;66.70;;;;;;5032887;28;20415;-68
2022/07/06 13:13:49;;;;;;;2.63;2.10;;;25.20;69.00;;;;;;5033233;28;20693;-68
2022/07/06 13:16:15;;;;;;;2.63;2.53;;;25.10;68.10;;;;;;5034272;28;20178;-70
2022/07/06 13:18:41;;;;;;;3.63;2.77;;;25.00;68.00;;;;;;5034343;28;20166;-69
2022/07/06 13:21:07;;;;;;;4.80;2.80;;;25.10;68.90;;;;;;5033814;28;20426;-69
2022/07/06 13:23:32;;;;;;;3.07;2.60;;;25.00;68.90;;;;;;5033507;28;20681;-69
2022/07/06 13:25:58;;;;;;;2.80;2.60;;;24.80;68.30;;;;;;5033693;28;20170;-68
2022/07/06 13:28:24;;;;;;;2.93;2.73;;;24.70;69.10;;;;;;5033757;28;20182;-72
2022/07/06 13:30:50;;;;;;;2.97;2.77;;;24.80;71.50;;;;;;5033380;28;20421;-65
2022/07/06 13:33:15;;;;;;;3.20;3.00;;;24.90;70.60;;;;;;5033543;28;20210;-67
2022/07/06 13:35:41;;;;;;;2.30;2.20;;;25.10;72.00;;;;;;5033821;28;20257;-66
2022/07/06 13:38:06;;;;;;;2.87;2.67;;;25.20;71.20;;;;;;5033397;28;20537;-65
2022/07/06 13:40:34;;;;;;;2.53;2.33;;;25.40;69.30;;;;;;5033821;28;20221;-68
2022/07/06 13:43:00;;;;;;;3.20;3.00;;;25.40;69.10;;;;;;5032901;28;20224;-67
2022/07/06 13:45:25;;;;;;;3.07;2.87;;;25.40;68.90;;;;;;5033596;28;20383;-69
2022/07/06 13:47:51;;;;;;;3.77;2.90;;;25.30;68.40;;;;;;5033675;28;20534;-69
2022/07/06 13:50:17;;;;;;;3.57;2.80;;;25.10;69.10;;;;;;5033082;28;20209;-69
2022/07/06 13:52:42;;;;;;;3.80;2.63;;;24.80;67.90;;;;;;5031715;28;20210;-68
2022/07/06 13:55:09;;;;;;;2.43;2.33;;;24.80;70.30;;;;;;5031999;28;20538;-70
2022/07/06 13:57:35;;;;;;;2.73;2.47;;;24.80;70.60;;;;;;5033453;28;20236;-68
2022/07/06 14:00:01;;;;;;;3.10;2.90;;;25.10;70.30;;;;;;5032997;28;20449;-70
2022/07/06 14:02:26;;;;;;;2.50;2.30;;;25.40;70.10;;;;;;5032599;28;20581;-68
2022/07/06 14:04:52;;;;;;;2.63;2.53;;;25.60;67.70;;;;;;5032262;28;20487;-66
2022/07/06 14:07:18;;;;;;;2.50;2.40;;;25.60;67.40;;;;;;5033110;28;20537;-69
2022/07/06 14:09:43;;;;;;;3.33;3.13;;;25.60;68.70;;;;;;5032539;28;20175;-69
2022/07/06 14:12:09;;;;;;;2.57;2.47;;;25.60;69.20;;;;;;5033391;28;20194;-68
2022/07/06 14:14:35;;;;;;;2.80;2.63;;;25.60;69.00;;;;;;5031188;28;20182;-66
2022/07/06 14:17:00;;;;;;;3.00;2.80;;;25.50;67.10;;;;;;5031834;28;20221;-66
2022/07/06 14:19:26;;;;;;;2.77;2.60;;;25.40;68.70;;;;;;5032563;28;20182;-65
2022/07/06 14:21:51;;;;;;;3.70;3.43;;;25.20;68.00;;;;;;5032666;28;20209;-65
2022/07/06 14:24:17;;;;;;;2.73;2.53;;;25.10;68.60;;;;;;5031680;28;20177;-66
2022/07/06 14:26:43;;;;;;;2.63;2.43;;;25.10;70.20;;;;;;5032411;28;20683;-65
2022/07/06 14:29:08;;;;;;;3.47;3.27;;;24.90;69.60;;;;;;5033050;28;20182;-65
2022/07/06 14:31:34;;;;;;;2.73;2.53;;;24.90;69.30;;;;;;5032767;28;20289;-66
2022/07/06 14:34:00;;;;;;;3.00;2.80;;;24.90;68.60;;;;;;5031520;28;20251;-64
2022/07/06 14:36:25;;;;;;;2.30;2.20;;;24.70;68.20;;;;;;5032502;28;20187;-66
2022/07/06 14:38:51;;;;;;;2.60;2.50;;;24.70;69.30;;;;;;5032865;28;20261;-66
2022/07/06 14:41:17;;;;;;;2.70;2.50;;;24.60;70.50;;;;;;5032035;28;20288;-65
2022/07/06 14:43:43;;;;;;;2.10;2.00;;;24.60;70.90;;;;;;5032041;28;20170;-66
2022/07/06 14:46:08;;;;;;;2.97;2.70;;;24.60;67.60;;;;;;5032656;28;20456;-65
2022/07/06 14:48:34;;;;;;;2.73;2.53;;;24.60;70.30;;;;;;5032727;28;20249;-65
2022/07/06 14:51:00;;;;;;;2.70;2.60;;;24.60;69.00;;;;;;5032459;28;20173;-65
2022/07/06 14:53:25;;;;;;;3.10;2.90;;;24.60;68.80;;;;;;5031744;28;20193;-66
2022/07/06 14:55:52;;;;;;;2.37;2.17;;;24.60;66.90;;;;;;5032500;28;20228;-64
2022/07/06 14:58:17;;;;;;;2.53;2.33;;;24.40;66.30;;;;;;5032473;28;20213;-65
2022/07/06 15:00:46;;;;;;;2.90;2.70;;;24.30;69.80;;;;;;5031271;28;20444;-65
2022/07/06 15:03:12;;;;;;;2.63;2.43;;;24.30;68.20;;;;;;5031957;28;20292;-66
2022/07/06 15:05:38;;;;;;;8.80;2.80;;;24.20;70.20;;;;;;5032065;28;20532;-65
2022/07/06 15:08:05;;;;;;;2.70;2.50;;;24.20;69.30;;;;;;5031999;28;20170;-66
2022/07/06 15:10:31;;;;;;;2.60;2.30;;;24.20;69.70;;;;;;5032518;28;20660;-65
2022/07/06 15:12:56;;;;;;;2.40;2.20;;;24.20;70.40;;;;;;5032122;28;20419;-72
2022/07/06 15:15:22;;;;;;;2.33;2.13;;;24.20;70.00;;;;;;5032193;28;20193;-76
2022/07/06 15:17:48;;;;;;;2.40;2.20;;;24.10;68.70;;;;;;5032126;28;20583;-72
2022/07/06 15:20:16;;;;;;;1.67;1.60;;;24.10;67.60;;;;;;5032237;28;20532;-74
2022/07/06 15:22:42;;;;;;;3.17;2.97;;;24.00;68.00;;;;;;5034693;28;20202;-73
2022/07/06 15:25:08;;;;;;;2.50;2.40;;;23.90;67.50;;;;;;5035931;28;20391;-71
2022/07/06 15:27:36;;;;;;;2.27;2.07;;;23.90;68.20;;;;;;5035933;28;20174;-73
2022/07/06 15:30:01;;;;;;;5.10;2.63;;;23.80;69.10;;;;;;5036536;28;20404;-75
2022/07/06 15:32:27;;;;;;;2.50;2.30;;;23.70;68.60;;;;;;5034144;28;20426;-74
2022/07/06 15:34:53;;;;;;;2.80;2.60;;;23.60;67.30;;;;;;5035673;28;20193;-73
2022/07/06 15:37:18;;;;;;;5.87;2.43;;;23.60;68.80;;;;;;5035000;28;20713;-74
2022/07/06 15:39:44;;;;;;;2.63;2.10;;;23.60;67.50;;;;;;5034992;28;20170;-72
2022/07/06 15:42:10;;;;;;;2.57;2.37;;;23.50;67.90;;;;;;5034327;28;20261;-78
2022/07/06 15:44:35;;;;;;;2.37;2.27;;;23.40;67.30;;;;;;5035680;28;20176;-72
2022/07/06 15:47:07;;;;;;;2.73;2.53;;;23.40;69.90;;;;;;5036116;28;20168;-73
2022/07/06 15:49:33;;;;;;;2.30;2.20;;;23.20;69.20;;;;;;5035756;28;20233;-74
2022/07/06 15:51:59;;;;;;;2.43;2.20;;;23.10;67.50;;;;;;5035915;28;20447;-73
2022/07/06 15:54:25;;;;;;;2.00;1.80;;;23.00;69.00;;;;;;5034852;28;20419;-75
2022/07/06 15:56:51;;;;;;;2.60;2.43;;;22.90;69.70;;;;;;5036168;28;20397;-74
2022/07/06 15:59:17;;;;;;;2.23;2.10;;;22.80;69.80;;;;;;5036200;28;20174;-74
2022/07/06 16:01:42;;;;;;;2.03;1.93;;;22.80;70.10;;;;;;5035369;28;20215;-73
2022/07/06 16:04:09;;;;;;;2.50;2.30;;;22.70;68.70;;;;;;5034103;28;20175;-72
2022/07/06 16:06:35;;;;;;;2.00;1.90;;;22.60;68.80;;;;;;5035095;28;20179;-74
2022/07/06 16:09:01;;;;;;;3.10;2.30;;;22.50;69.80;;;;;;5035526;28;20418;-74
2022/07/06 16:11:26;;;;;;;2.70;2.50;;;22.50;70.90;;;;;;5035546;28;20418;-74
2022/07/06 16:13:52;;;;;;;2.20;2.10;;;22.50;69.40;;;;;;5034104;28;20181;-73
2022/07/06 16:16:18;;;;;;;3.13;2.93;;;22.60;69.60;;;;;;5034646;28;20210;-74
2022/07/06 16:18:44;;;;;;;2.53;1.90;;;22.60;69.70;;;;;;5035786;28;20174;-75
2022/07/06 16:21:10;;;;;;;5.30;2.17;;;22.60;68.10;;;;;;5035528;28;20424;-74
2022/07/06 16:23:36;;;;;;;1.93;1.83;;;22.70;69.50;;;;;;5035093;28;20560;-73
2022/07/06 16:26:02;;;;;;;2.17;2.07;;;22.80;70.20;;;;;;5035132;28;20170;-75
2022/07/06 16:28:28;;;;;;;1.90;1.80;;;22.90;70.50;;;;;;5035471;28;20402;-74
2022/07/06 16:30:53;;;;;;;4.03;2.10;;;23.00;70.40;;;;;;5034297;28;20423;-75
2022/07/06 16:33:19;;;;;;;2.70;2.50;;;23.10;68.80;;;;;;5033629;28;20482;-74
2022/07/06 16:35:45;;;;;;;2.37;2.13;;;23.20;67.60;;;;;;5034370;28;20192;-74
2022/07/06 16:38:11;;;;;;;2.40;2.20;;;23.20;67.00;;;;;;5034405;28;20181;-74
2022/07/06 16:40:36;;;;;;;4.00;2.57;;;23.20;65.70;;;;;;5034883;28;20435;-74
2022/07/06 16:43:02;;;;;;;3.70;3.40;;;23.30;66.80;;;;;;5034801;28;20656;-74
2022/07/06 16:45:28;;;;;;;2.90;2.70;;;23.20;65.20;;;;;;5034625;28;20181;-75
2022/07/06 16:47:53;;;;;;;6.17;5.20;;;23.20;64.70;;;;;;5034887;28;20196;-75
2022/07/06 16:50:19;;;;;;;2.40;2.30;;;23.20;64.30;;;;;;5033632;28;20526;-75
2022/07/06 16:52:45;;;;;;;2.00;1.90;;;23.10;63.30;;;;;;5034573;28;20277;-74
2022/07/06 16:55:10;;;;;;;2.47;2.30;;;23.10;63.60;;;;;;5033858;28;20789;-75
2022/07/06 16:57:36;;;;;;;2.60;2.40;;;23.10;65.00;;;;;;5034929;28;20177;-74
2022/07/06 17:00:03;;;;;;;4.43;2.10;;;23.00;63.50;;;;;;5034472;28;20209;-73
2022/07/06 17:02:29;;;;;;;2.03;1.87;;;22.90;63.30;;;;;;5033924;28;21023;-73
2022/07/06 17:04:55;;;;;;;2.17;2.07;;;22.80;63.50;;;;;;5033739;28;20436;-73
2022/07/06 17:07:20;;;;;;;3.60;1.90;;;22.70;64.40;;;;;;5034025;28;20163;-73
2022/07/06 17:09:46;;;;;;;1.90;1.80;;;22.70;64.50;;;;;;5033962;28;20530;-76
2022/07/06 17:12:11;;;;;;;3.90;2.70;;;22.60;64.50;;;;;;5033668;28;20202;-75
2022/07/06 17:14:37;;;;;;;2.23;1.57;;;22.60;64.70;;;;;;5034097;28;20181;-74
2022/07/06 17:17:03;;;;;;;1.70;1.63;;;22.50;63.60;;;;;;5034100;28;20175;-75
2022/07/06 17:19:28;;;;;;;1.77;1.67;;;22.40;65.10;;;;;;5033535;28;20183;-74
2022/07/06 17:21:54;;;;;;;1.60;1.50;;;22.40;63.90;;;;;;5033984;28;20551;-74
2022/07/06 17:24:20;;;;;;;1.87;1.77;;;22.40;63.80;;;;;;5033010;28;20173;-70
2022/07/06 17:26:46;;;;;;;2.73;1.87;;;22.30;62.20;;;;;;5034139;28;20455;-68
2022/07/06 17:29:12;;;;;;;1.87;1.70;;;22.20;62.00;;;;;;5033010;28;20175;-66
2022/07/06 17:31:37;;;;;;;1.67;1.40;;;22.20;62.20;;;;;;5032990;28;20202;-65
2022/07/06 17:34:03;;;;;;;1.57;1.40;;;22.10;63.00;;;;;;5032609;28;20706;-68
2022/07/06 17:36:29;;;;;;;1.50;1.40;;;22.10;63.20;;;;;;5033898;28;20178;-67
2022/07/06 17:38:55;;;;;;;2.30;2.10;;;22.10;62.50;;;;;;5033272;28;20178;-66
2022/07/06 17:41:21;;;;;;;1.80;1.70;;;22.00;62.50;;;;;;5033606;28;20252;-67
2022/07/06 17:43:47;;;;;;;1.80;1.53;;;22.00;62.70;;;;;;5030901;28;20190;-67
2022/07/06 17:46:12;;;;;;;2.17;2.07;;;21.80;62.20;;;;;;5031518;28;20607;-67
2022/07/06 17:48:38;;;;;;;2.10;1.83;;;21.80;62.40;;;;;;5033657;28;20174;-67
2022/07/06 17:51:04;;;;;;;3.37;2.00;;;21.70;63.10;;;;;;5033742;28;20174;-67
2022/07/06 17:53:29;;;;;;;2.17;2.07;;;21.70;63.20;;;;;;5032975;28;20670;-69
2022/07/06 17:55:55;;;;;;;2.47;2.27;;;21.70;63.60;;;;;;5033030;28;20175;-68
2022/07/06 17:58:20;;;;;;;1.80;1.70;;;21.60;63.90;;;;;;5033602;28;20181;-69
2022/07/06 18:00:46;;;;;;;3.33;1.90;;;21.50;63.00;;;;;;5033541;28;20638;-68
2022/07/06 18:03:12;;;;;;;2.23;2.03;;;21.50;63.40;;;;;;5032820;28;20206;-67
2022/07/06 18:05:37;;;;;;;2.03;1.93;;;21.40;63.30;;;;;;5033327;28;20182;-67
2022/07/06 18:08:04;;;;;;;2.17;1.80;;;21.30;63.20;;;;;;5033412;28;20170;-69
2022/07/06 18:10:30;;;;;;;1.90;1.80;;;21.20;62.60;;;;;;5033125;28;20178;-67
2022/07/06 18:12:57;;;;;;;5.40;1.70;;;21.10;62.50;;;;;;5032618;28;20441;-69
2022/07/06 18:15:23;;;;;;;1.97;1.87;;;21.10;62.90;;;;;;5032157;28;20559;-72
2022/07/06 18:17:51;;;;;;;2.93;2.00;;;21.10;63.70;;;;;;5033068;28;20415;-71
2022/07/06 18:20:17;;;;;;;3.57;1.87;;;21.10;64.00;;;;;;5032897;28;20181;-70